Time;durP1;ratioP1;P1;durP2;ratioP2;P2;SDS_P1;SDS_P2;PMS_P1;PMS_P2;Temp;Humidity;BMP_temperature;BMP_pressure;BME280_temperature;BME280_humidity;BME280_pressure;Samples;Min_cycle;Max_cycle;Signal;HPM_P1;HPM_P2
2022/03/30 00:01:23;;;;;;;25.02;16.00;;;;;;;11.74;57.69;100613.86;1730917;81;21014;-64
2022/03/30 00:03:50;;;;;;;23.38;16.05;;;;;;;11.74;57.72;100616.46;1758611;81;21524;-63
2022/03/30 00:06:18;;;;;;;29.65;16.70;;;;;;;11.75;57.64;100614.24;1758438;81;21022;-63
2022/03/30 00:08:47;;;;;;;23.05;16.80;;;;;;;11.75;57.62;100609.89;1758839;81;21030;-63
2022/03/30 00:11:14;;;;;;;27.52;17.90;;;;;;;11.75;57.65;100607.73;1758891;81;21026;-64
2022/03/30 00:13:41;;;;;;;31.48;16.90;;;;;;;11.75;57.68;100609.03;1758993;81;21514;-63
2022/03/30 00:16:10;;;;;;;25.72;17.25;;;;;;;11.74;57.79;100607.34;1758781;81;21037;-64
2022/03/30 00:18:37;;;;;;;25.08;18.57;;;;;;;11.74;57.73;100613.86;1695208;83;21035;-63
2022/03/30 00:21:05;;;;;;;34.90;19.62;;;;;;;11.73;57.74;100616.04;1724273;83;21013;-63
2022/03/30 00:23:33;;;;;;;21.00;18.20;;;;;;;11.71;57.80;100616.53;1721813;81;21583;-63
2022/03/30 00:26:00;;;;;;;29.63;19.70;;;;;;;11.70;57.86;100621.36;1748445;82;21022;-63
2022/03/30 00:28:28;;;;;;;29.63;21.50;;;;;;;11.70;57.97;100621.36;1748636;82;21022;-63
2022/03/30 00:30:56;;;;;;;29.92;22.48;;;;;;;11.71;58.00;100629.56;1748836;82;21553;-63
2022/03/30 00:33:24;;;;;;;28.02;21.20;;;;;;;11.72;57.95;100619.56;1748249;82;21014;-64
2022/03/30 00:35:51;;;;;;;29.30;21.48;;;;;;;11.73;57.91;100619.95;1748817;82;21033;-63
2022/03/30 00:38:18;;;;;;;30.10;21.77;;;;;;;11.74;57.81;100621.67;1742170;82;21068;-63
2022/03/30 00:40:46;;;;;;;27.62;22.05;;;;;;;11.73;57.94;100618.64;1748261;82;20990;-63
2022/03/30 00:43:13;;;;;;;28.07;22.42;;;;;;;11.75;57.93;100627.27;1748387;82;21582;-63
2022/03/30 00:45:41;;;;;;;29.85;22.90;;;;;;;11.75;57.93;100620.31;1748391;82;21006;-63
2022/03/30 00:48:10;;;;;;;34.73;22.60;;;;;;;11.76;57.99;100614.66;1748547;82;21041;-64
2022/03/30 00:50:38;;;;;;;34.92;23.45;;;;;;;11.78;57.97;100618.08;1748377;82;21073;-63
2022/03/30 00:53:05;;;;;;;31.57;22.75;;;;;;;11.79;57.78;100613.25;1748638;82;21023;-63
2022/03/30 00:55:34;;;;;;;34.00;22.48;;;;;;;11.81;57.78;100608.88;1748317;82;21533;-64
2022/03/30 00:58:00;;;;;;;37.88;23.90;;;;;;;11.82;57.66;100609.27;1748360;82;20990;-63
2022/03/30 01:00:28;;;;;;;30.77;23.20;;;;;;;11.82;57.61;100607.97;1748707;82;21502;-64
2022/03/30 01:02:55;;;;;;;36.42;23.95;;;;;;;11.81;57.50;100597.16;1748013;82;20974;-63
2022/03/30 01:05:23;;;;;;;38.45;23.87;;;;;;;11.84;57.48;100595.74;1748606;82;21030;-63
2022/03/30 01:07:50;;;;;;;34.67;24.35;;;;;;;11.85;57.41;100596.16;1748396;82;21514;-63
2022/03/30 01:10:18;;;;;;;31.23;24.02;;;;;;;11.85;57.32;100589.64;1748467;82;21070;-63
2022/03/30 01:12:47;;;;;;;39.60;23.45;;;;;;;11.86;57.31;100590.03;1748343;82;21038;-63
2022/03/30 01:15:15;;;;;;;39.63;24.75;;;;;;;11.87;57.27;100594.36;1748665;82;21010;-64
2022/03/30 01:17:42;;;;;;;46.10;25.45;;;;;;;11.87;57.10;100592.58;1748684;82;21022;-63
2022/03/30 01:20:12;;;;;;;39.60;24.85;;;;;;;11.88;57.06;100593.45;1735704;82;21038;-62
2022/03/30 01:22:40;;;;;;;42.48;25.00;;;;;;;11.88;56.96;100590.84;1748505;81;21048;-63
2022/03/30 01:25:09;;;;;;;37.63;25.12;;;;;;;11.91;56.83;100588.16;1748712;82;21026;-64
2022/03/30 01:27:37;;;;;;;42.88;25.43;;;;;;;11.93;56.58;100588.49;1748197;82;21601;-63
2022/03/30 01:33:05;;;;;;;44.48;26.50;;;;;;;11.94;56.57;100577.62;1746666;82;21022;-65
2022/03/30 01:35:32;;;;;;;36.50;24.57;;;;;;;11.95;56.45;100583.25;1748832;82;21014;-64
2022/03/30 01:38:00;;;;;;;36.83;24.98;;;;;;;11.94;56.48;100578.92;1742398;82;21069;-65
2022/03/30 01:40:28;;;;;;;38.05;26.25;;;;;;;11.94;56.37;100573.70;1748655;82;21022;-65
2022/03/30 01:42:56;;;;;;;37.63;25.17;;;;;;;11.94;56.44;100573.70;1748345;82;21553;-64
2022/03/30 01:45:25;;;;;;;34.20;24.70;;;;;;;11.95;56.39;100572.83;1748486;82;21053;-65
2022/03/30 01:47:55;;;;;;;34.88;24.52;;;;;;;11.96;56.30;100568.00;1735539;82;21053;-65
2022/03/30 01:50:24;;;;;;;;;;;;;;;11.95;56.42;100569.74;1751151;82;21018;-65
2022/03/30 01:52:52;;;;;;;36.60;24.47;;;;;;;11.96;56.33;100570.61;1748478;82;20121;-65
2022/03/30 01:55:20;;;;;;;39.88;25.23;;;;;;;11.97;56.16;100574.94;1748492;82;21010;-64
2022/03/30 01:57:48;;;;;;;34.10;24.72;;;;;;;11.94;56.20;100573.70;1748888;82;21006;-64
2022/03/30 02:00:17;;;;;;;30.10;24.47;;;;;;;11.95;55.91;100568.91;1748372;82;21561;-65
2022/03/30 02:02:46;;;;;;;32.85;25.45;;;;;;;11.95;55.81;100567.13;1748370;82;20982;-64
2022/03/30 02:05:16;;;;;;;38.10;26.57;;;;;;;11.95;55.79;100566.30;1748654;82;21455;-64
2022/03/30 02:07:43;;;;;;;32.78;23.32;;;;;;;11.95;55.76;100563.70;1748572;82;21065;-64
2022/03/30 02:10:12;;;;;;;34.10;24.90;;;;;;;11.96;55.66;100561.03;1745591;82;21005;-65
2022/03/30 02:12:39;;;;;;;34.40;23.25;;;;;;;11.96;55.55;100561.48;1748059;82;21010;-65
2022/03/30 02:15:10;;;;;;;36.93;25.50;;;;;;;11.97;55.49;100561.89;1748489;82;21018;-65
2022/03/30 02:17:39;;;;;;;31.02;25.48;;;;;;;11.97;55.28;100563.20;1747888;82;21022;-64
2022/03/30 02:20:08;;;;;;;30.57;23.92;;;;;;;11.95;55.07;100564.53;1748688;82;21030;-64
2022/03/30 02:22:35;;;;;;;29.63;23.55;;;;;;;11.94;55.06;100573.70;1748188;81;21062;-64
2022/03/30 02:25:02;;;;;;;31.90;24.10;;;;;;;11.93;55.15;100568.94;1748444;82;21025;-64
2022/03/30 02:27:31;;;;;;;32.05;24.87;;;;;;;11.93;55.13;100565.50;1748414;82;21014;-63
2022/03/30 02:29:59;;;;;;;41.88;26.35;;;;;;;11.91;55.00;100562.91;1748428;82;21014;-65
2022/03/30 02:32:26;;;;;;;66.33;29.35;;;;;;;11.92;54.76;100574.20;1735604;82;21506;-64
2022/03/30 02:34:54;;;;;;;52.88;30.15;;;;;;;11.90;54.33;100574.70;1748694;82;21604;-64
2022/03/30 02:37:21;;;;;;;54.38;29.57;;;;;;;11.88;54.23;100572.59;1748524;82;21021;-64
2022/03/30 02:39:50;;;;;;;55.08;31.50;;;;;;;11.87;53.98;100582.63;1748501;82;21026;-64
2022/03/30 02:42:17;;;;;;;51.45;30.92;;;;;;;11.82;53.94;100568.42;1748602;82;21018;-65
2022/03/30 02:44:46;;;;;;;63.13;30.95;;;;;;;11.79;53.88;100576.77;1748265;82;21069;-64
2022/03/30 02:47:13;;;;;;;55.75;30.48;;;;;;;11.76;53.83;100576.42;1748456;82;21030;-65
2022/03/30 02:49:42;;;;;;;47.13;30.45;;;;;;;11.71;53.58;100575.69;1748497;82;21022;-64
2022/03/30 02:52:09;;;;;;;51.25;30.08;;;;;;;11.66;53.54;100569.78;1748176;82;21022;-65
2022/03/30 02:54:37;;;;;;;45.17;28.50;;;;;;;11.62;53.46;100565.52;1748500;82;21508;-64
2022/03/30 02:57:04;;;;;;;39.45;25.05;;;;;;;11.59;53.58;100572.11;1748572;82;21525;-65
2022/03/30 02:59:32;;;;;;;31.48;24.35;;;;;;;11.56;53.86;100567.44;1748613;82;21486;-64
2022/03/30 03:01:59;;;;;;;29.87;22.67;;;;;;;11.57;54.02;100575.65;1748150;82;21058;-64
2022/03/30 03:04:26;;;;;;;31.17;23.60;;;;;;;11.56;54.04;100564.84;1735510;82;21018;-64
2022/03/30 03:06:53;;;;;;;30.92;22.52;;;;;;;11.58;53.86;100573.46;1748460;82;21557;-65
2022/03/30 03:09:20;;;;;;;27.90;22.58;;;;;;;11.59;53.69;100573.84;1748543;82;21044;-64
2022/03/30 03:11:48;;;;;;;33.38;23.47;;;;;;;11.61;53.53;100569.45;1748758;82;21046;-64
2022/03/30 03:14:16;;;;;;;32.23;23.07;;;;;;;11.63;53.29;100569.81;1748928;82;21450;-65
2022/03/30 03:16:44;;;;;;;26.20;22.05;;;;;;;11.67;53.14;100578.42;1748783;82;21048;-64
2022/03/30 03:19:12;;;;;;;25.08;21.77;;;;;;;11.68;52.88;100578.84;1748582;82;21010;-65
2022/03/30 03:21:41;;;;;;;30.88;22.22;;;;;;;11.71;52.76;100582.65;1748524;82;21072;-64
2022/03/30 03:24:09;;;;;;;28.52;22.95;;;;;;;11.72;52.52;100587.84;1748413;81;21565;-65
2022/03/30 03:26:36;;;;;;;30.32;22.67;;;;;;;11.74;52.35;100587.78;1749040;82;21010;-65
2022/03/30 03:29:03;;;;;;;34.30;21.70;;;;;;;11.75;52.58;100595.55;1748474;82;21030;-65
2022/03/30 03:31:30;;;;;;;29.98;21.23;;;;;;;11.76;53.04;100588.16;1748365;82;21026;-64
2022/03/30 03:33:58;;;;;;;31.87;20.72;;;;;;;11.78;53.31;100592.02;1742023;82;21026;-64
2022/03/30 03:36:25;;;;;;;27.52;21.12;;;;;;;11.79;53.35;100593.70;1748409;82;21037;-65
2022/03/30 03:38:53;;;;;;;28.95;20.72;;;;;;;11.79;53.45;100592.40;1748641;82;21550;-64
2022/03/30 03:41:20;;;;;;;26.75;19.75;;;;;;;11.78;53.57;100588.10;1748432;81;21062;-64
2022/03/30 03:43:48;;;;;;;28.10;20.35;;;;;;;11.79;53.61;100588.48;1748979;82;21038;-64
2022/03/30 03:46:15;;;;;;;25.65;19.45;;;;;;;11.80;53.51;100581.09;1748502;82;21046;-64
2022/03/30 03:48:42;;;;;;;27.85;20.60;;;;;;;11.82;53.48;100588.41;1748179;82;21026;-64
2022/03/30 03:51:09;;;;;;;28.70;19.95;;;;;;;11.83;53.28;100586.23;1748670;82;21522;-65
2022/03/30 03:53:38;;;;;;;42.62;23.12;;;;;;;11.83;53.09;100586.23;1748410;82;21050;-64
2022/03/30 03:56:06;;;;;;;40.43;22.40;;;;;;;11.78;53.19;100586.80;1748684;82;21077;-64
2022/03/30 03:58:34;;;;;;;55.95;23.52;;;;;;;11.78;53.24;100586.80;1742175;82;20992;-64
2022/03/30 04:01:01;;;;;;;50.73;23.60;;;;;;;11.78;53.11;100600.70;1748374;82;20986;-64
2022/03/30 04:03:29;;;;;;;45.52;23.77;;;;;;;11.79;53.07;100600.22;1747542;82;21002;-64
2022/03/30 04:05:56;;;;;;;47.03;23.57;;;;;;;11.81;53.22;100607.58;1748221;82;21040;-63
2022/03/30 04:08:24;;;;;;;36.25;22.00;;;;;;;11.81;53.27;100603.67;1748693;82;21026;-65
2022/03/30 04:10:51;;;;;;;31.23;21.90;;;;;;;11.82;53.38;100611.88;1748285;82;21577;-64
2022/03/30 04:13:18;;;;;;;32.85;21.17;;;;;;;11.83;53.29;100613.61;1745390;81;21506;-64
2022/03/30 04:15:47;;;;;;;29.40;21.90;;;;;;;11.86;53.27;100613.50;1715311;83;21551;-64
2022/03/30 04:18:15;;;;;;;29.23;21.05;;;;;;;11.88;53.21;100614.30;1783120;80;20994;-64
2022/03/30 04:20:44;;;;;;;30.43;20.45;;;;;;;11.90;53.17;100625.55;1782871;80;21043;-63
2022/03/30 04:23:11;;;;;;;30.90;20.85;;;;;;;11.91;53.05;100624.66;1783579;80;21565;-63
2022/03/30 04:25:39;;;;;;;31.80;20.62;;;;;;;11.91;53.08;100630.70;1788972;80;21009;-63
2022/03/30 04:28:07;;;;;;;30.52;20.12;;;;;;;11.93;53.09;100634.59;1789252;80;21002;-63
2022/03/30 04:30:34;;;;;;;23.25;19.67;;;;;;;11.94;53.16;100633.68;1782651;80;20944;-64
2022/03/30 04:33:02;;;;;;;29.75;21.75;;;;;;;11.97;53.11;100632.30;1788893;80;20998;-64
2022/03/30 04:35:29;;;;;;;26.02;20.35;;;;;;;12.01;53.19;100635.22;1789474;80;20994;-63
2022/03/30 04:37:58;;;;;;;27.50;21.40;;;;;;;12.05;53.24;100642.05;1789002;80;21462;-63
2022/03/30 04:40:26;;;;;;;39.95;22.02;;;;;;;12.10;53.23;100642.76;1789226;80;21453;-63
2022/03/30 04:42:56;;;;;;;41.55;24.27;;;;;;;12.15;53.25;100640.44;1788819;80;21497;-63
2022/03/30 04:45:23;;;;;;;41.88;24.72;;;;;;;12.20;53.35;100646.80;1789216;80;21012;-64
2022/03/30 04:47:53;;;;;;;33.08;23.40;;;;;;;12.25;53.63;100646.22;1789326;80;21505;-63
2022/03/30 04:50:23;;;;;;;29.60;22.73;;;;;;;12.30;53.93;100652.17;1789114;80;20978;-63
2022/03/30 04:52:52;;;;;;;34.90;22.50;;;;;;;12.34;54.12;100651.17;1788313;80;21021;-63
2022/03/30 04:55:20;;;;;;;36.95;22.22;;;;;;;12.40;54.20;100648.38;1789250;80;21010;-64
2022/03/30 04:57:47;;;;;;;29.63;22.80;;;;;;;12.46;54.26;100650.80;1788827;80;21005;-64
2022/03/30 05:00:16;;;;;;;26.55;20.68;;;;;;;12.52;54.23;100651.91;1789165;80;21533;-64
2022/03/30 05:02:43;;;;;;;35.38;22.00;;;;;;;12.59;54.07;100659.92;1788928;80;20993;-64
2022/03/30 05:05:10;;;;;;;27.87;20.50;;;;;;;12.65;54.00;100654.52;1788997;80;21470;-64
2022/03/30 05:07:38;;;;;;;31.10;19.82;;;;;;;12.72;53.81;100650.81;1788863;80;21493;-64
2022/03/30 05:10:10;;;;;;;31.17;20.70;;;;;;;12.78;53.69;100653.23;1788816;80;21439;-64
2022/03/30 05:12:37;;;;;;;32.25;21.90;;;;;;;12.83;53.50;100652.64;1789005;80;21489;-64
2022/03/30 05:15:07;;;;;;;31.35;21.57;;;;;;;12.88;53.45;100654.63;1775581;80;20990;-64
2022/03/30 05:17:35;;;;;;;34.63;22.00;;;;;;;12.94;53.28;100654.43;1789262;80;21009;-64
2022/03/30 05:20:06;;;;;;;32.00;22.10;;;;;;;12.98;53.10;100656.03;1788549;80;21033;-64
2022/03/30 05:22:35;;;;;;;30.52;22.00;;;;;;;13.03;52.95;100652.84;1789324;80;20970;-64
2022/03/30 05:25:02;;;;;;;28.92;22.98;;;;;;;13.06;52.98;100648.83;1784605;80;21668;-63
2022/03/30 05:27:30;;;;;;;30.57;21.45;;;;;;;13.09;53.10;100663.55;1781838;80;21458;-64
2022/03/30 05:29:57;;;;;;;31.60;21.97;;;;;;;13.14;53.14;100659.05;1782994;80;20998;-63
2022/03/30 05:32:25;;;;;;;26.57;20.48;;;;;;;13.12;53.28;100663.47;1782933;80;20994;-64
2022/03/30 05:34:52;;;;;;;24.30;20.15;;;;;;;13.29;52.71;100655.06;1783041;80;20994;-63
2022/03/30 05:37:19;;;;;;;28.98;21.45;;;;;;;13.38;52.27;100652.11;1782940;80;21451;-64
2022/03/30 05:39:47;;;;;;;25.95;21.12;;;;;;;13.41;51.84;100644.18;1782834;80;21014;-64
2022/03/30 05:42:14;;;;;;;30.50;21.95;;;;;;;13.44;51.54;100647.53;1783350;80;20970;-63
2022/03/30 05:44:42;;;;;;;26.12;21.42;;;;;;;13.49;51.12;100648.69;1783180;80;21041;-64
2022/03/30 05:47:09;;;;;;;26.55;22.22;;;;;;;13.52;50.39;100648.56;1783264;80;21006;-64
2022/03/30 05:49:37;;;;;;;26.00;21.05;;;;;;;13.55;50.03;100641.92;1782920;80;21449;-63
2022/03/30 05:52:04;;;;;;;24.37;20.50;;;;;;;13.56;49.67;100641.86;1783187;80;20959;-63
2022/03/30 05:54:31;;;;;;;27.13;21.17;;;;;;;13.60;49.50;100646.08;1783247;80;21497;-63
2022/03/30 05:57:01;;;;;;;24.63;20.90;;;;;;;13.66;49.64;100638.01;1783216;80;21466;-64
2022/03/30 05:59:39;;;;;;;27.30;22.07;;;;;;;13.77;49.39;100633.25;1783151;80;20994;-64
2022/03/30 06:02:08;;;;;;;32.42;22.17;;;;;;;13.93;48.81;100633.53;1782957;80;21045;-63
2022/03/30 06:04:36;;;;;;;23.73;21.23;;;;;;;14.15;48.53;100637.06;1783133;80;21010;-63
2022/03/30 06:07:03;;;;;;;31.33;22.15;;;;;;;14.39;48.01;100631.36;1783557;80;20987;-64
2022/03/30 06:09:34;;;;;;;29.40;20.50;;;;;;;14.65;47.72;100632.03;1782967;80;20966;-64
2022/03/30 06:12:03;;;;;;;31.42;19.70;;;;;;;14.98;47.88;100632.89;1770433;80;21032;-63
2022/03/30 06:14:33;;;;;;;25.82;18.42;;;;;;;15.29;47.61;100632.83;1783077;80;21006;-63
2022/03/30 06:17:03;;;;;;;24.87;18.00;;;;;;;15.52;46.86;100621.38;1783465;80;21001;-64
2022/03/30 06:19:33;;;;;;;25.68;18.20;;;;;;;15.69;46.66;100617.55;1782972;80;21024;-63
2022/03/30 06:22:05;;;;;;;25.62;18.02;;;;;;;15.91;46.65;100622.22;1752183;81;21063;-63
2022/03/30 06:24:32;;;;;;;26.23;18.52;;;;;;;16.18;46.01;100625.34;1748622;80;21085;-63
2022/03/30 06:26:59;;;;;;;21.07;16.57;;;;;;;16.41;45.33;100621.64;1741898;82;21501;-64
2022/03/30 06:29:30;;;;;;;25.97;17.37;;;;;;;16.57;44.75;100627.91;1741740;82;21006;-63
2022/03/30 06:31:57;;;;;;;26.35;19.60;;;;;;;16.70;44.66;100630.31;1741872;82;20974;-63
2022/03/30 06:34:25;;;;;;;30.17;19.92;;;;;;;16.82;44.73;100634.97;1741783;82;21545;-63
2022/03/30 06:36:53;;;;;;;25.95;19.82;;;;;;;16.89;44.63;100631.13;1741874;82;20986;-63
2022/03/30 06:39:20;;;;;;;28.15;20.77;;;;;;;16.92;44.29;100629.19;1742050;81;21022;-64
2022/03/30 06:41:48;;;;;;;27.75;21.15;;;;;;;16.91;44.19;100634.53;1741639;82;20990;-63
2022/03/30 06:44:16;;;;;;;28.92;21.45;;;;;;;16.91;44.19;100629.27;1742234;82;21006;-63
2022/03/30 06:46:44;;;;;;;28.35;20.43;;;;;;;16.93;43.87;100633.53;1742021;82;21541;-64
2022/03/30 06:49:11;;;;;;;29.63;20.25;;;;;;;16.95;43.83;100632.13;1742061;82;20978;-63
2022/03/30 06:51:40;;;;;;;24.65;18.90;;;;;;;16.92;43.49;100628.33;1742204;82;21144;-63
2022/03/30 06:54:07;;;;;;;24.45;19.73;;;;;;;16.85;43.42;100634.83;1742045;82;21466;-63
2022/03/30 06:56:34;;;;;;;24.77;19.02;;;;;;;16.73;43.39;100635.44;1740863;82;21042;-64
2022/03/30 06:59:01;;;;;;;27.73;20.60;;;;;;;16.58;43.72;100644.05;1741771;82;21026;-63
2022/03/30 07:01:28;;;;;;;30.65;20.23;;;;;;;16.40;44.27;100640.95;1741929;82;21015;-64
2022/03/30 07:03:56;;;;;;;29.45;21.25;;;;;;;16.22;44.83;100649.22;1717280;82;21573;-63
2022/03/30 07:06:22;;;;;;;33.95;22.42;;;;;;;16.08;45.26;100656.42;1742171;82;21045;-63
2022/03/30 07:11:22;;;;;;;30.80;23.73;;;;;;;15.88;45.87;100663.05;1687705;84;21020;-62
2022/03/30 07:13:51;;;;;;;34.83;23.52;;;;;;;15.81;46.01;100665.98;1686524;83;21032;-63
2022/03/30 07:16:20;;;;;;;36.65;23.50;;;;;;;15.75;46.12;100667.13;1686556;84;21064;-63
2022/03/30 07:18:49;;;;;;;40.45;25.43;;;;;;;15.73;46.27;100657.61;1675645;85;21089;-64
2022/03/30 07:21:17;;;;;;;31.93;24.27;;;;;;;15.73;46.37;100661.09;1683594;85;21050;-64
2022/03/30 07:23:45;;;;;;;40.60;24.95;;;;;;;15.73;46.06;100654.53;1683039;85;21653;-63
2022/03/30 07:26:12;;;;;;;35.95;23.80;;;;;;;15.62;46.28;100654.63;1686386;85;21046;-63
2022/03/30 07:28:40;;;;;;;30.12;23.02;;;;;;;15.53;46.45;100658.50;1686009;85;21585;-65
2022/03/30 07:31:07;;;;;;;33.13;23.75;;;;;;;15.46;46.65;100659.67;1690522;84;21051;-64
2022/03/30 07:33:34;;;;;;;29.98;24.05;;;;;;;15.38;46.88;100664.36;1687892;83;21009;-64
2022/03/30 07:36:03;;;;;;;30.00;22.75;;;;;;;15.31;47.01;100664.24;1686490;85;21337;-62
2022/03/30 07:38:31;;;;;;;37.42;24.40;;;;;;;15.22;47.20;100668.55;1687456;85;21014;-64
2022/03/30 07:41:00;;;;;;;30.48;22.45;;;;;;;15.13;47.31;100667.61;1687394;85;20975;-64
2022/03/30 07:43:28;;;;;;;30.68;21.77;;;;;;;15.02;47.56;100675.91;1686828;85;21470;-63
2022/03/30 07:45:55;;;;;;;27.98;21.93;;;;;;;14.92;47.67;100665.42;1685671;85;21101;-62
2022/03/30 07:48:23;;;;;;;29.90;21.93;;;;;;;14.81;48.00;100668.09;1715591;81;21066;-64
2022/03/30 07:50:51;;;;;;;32.38;21.82;;;;;;;14.71;48.34;100675.92;1773096;81;21062;-63
2022/03/30 07:53:19;;;;;;;33.08;22.95;;;;;;;14.63;48.43;100684.92;1777611;80;21022;-64
2022/03/30 07:55:48;;;;;;;25.62;21.93;;;;;;;14.56;48.60;100679.55;1778886;81;21053;-63
2022/03/30 07:58:15;;;;;;;32.33;23.73;;;;;;;14.50;48.78;100675.86;1776231;80;21049;-63
2022/03/30 08:00:44;;;;;;;32.20;22.85;;;;;;;14.46;48.96;100676.03;1772920;81;20998;-63
2022/03/30 08:03:12;;;;;;;31.97;24.43;;;;;;;14.44;49.16;100673.48;1763041;81;20991;-62
2022/03/30 08:05:40;;;;;;;31.90;23.65;;;;;;;14.43;49.13;100673.07;1767959;81;20967;-62
2022/03/30 08:08:08;;;;;;;29.90;24.00;;;;;;;14.41;49.31;100670.97;1775528;81;21010;-63
2022/03/30 08:10:37;;;;;;;30.80;23.07;;;;;;;14.41;49.50;100667.05;1777041;80;21026;-63
2022/03/30 08:13:06;;;;;;;30.17;22.42;;;;;;;14.44;49.43;100669.56;1775565;80;21038;-63
2022/03/30 08:15:35;;;;;;;33.85;22.82;;;;;;;14.46;49.38;100674.73;1773190;81;21438;-63
2022/03/30 08:18:02;;;;;;;34.20;22.17;;;;;;;14.47;49.38;100670.73;1778345;80;21503;-62
2022/03/30 08:23:02;;;;;;;28.90;21.10;;;;;;;14.54;49.43;100677.45;1724715;83;21065;-62
2022/03/30 08:25:30;;;;;;;30.77;20.85;;;;;;;14.58;49.41;100673.80;1720729;82;21092;-64
2022/03/30 08:27:57;;;;;;;31.55;21.52;;;;;;;14.61;49.38;100671.04;1730800;82;21569;-63
2022/03/30 08:30:25;;;;;;;24.67;21.48;;;;;;;14.64;49.38;100667.45;1730846;83;21065;-62
2022/03/30 08:32:52;;;;;;;29.32;20.43;;;;;;;14.68;49.36;100667.72;1731020;82;21467;-62
2022/03/30 08:35:19;;;;;;;30.48;20.95;;;;;;;14.72;49.41;100669.75;1730398;82;21025;-63
2022/03/30 08:37:47;;;;;;;25.72;20.02;;;;;;;14.78;49.42;100669.50;1731366;82;21054;-63
2022/03/30 08:40:14;;;;;;;33.18;19.98;;;;;;;14.87;49.18;100672.62;1731648;82;21075;-63
2022/03/30 08:42:41;;;;;;;28.40;19.37;;;;;;;14.95;49.07;100665.76;1730710;82;21077;-63
2022/03/30 08:45:10;;;;;;;27.00;19.05;;;;;;;15.03;49.03;100668.46;1723666;83;21093;-62
2022/03/30 08:47:38;;;;;;;25.27;19.65;;;;;;;15.14;48.83;100665.41;1730800;82;21124;-64
2022/03/30 08:50:07;;;;;;;29.50;20.62;;;;;;;15.21;48.73;100661.59;1730943;82;21505;-65
2022/03/30 08:52:34;;;;;;;23.90;19.35;;;;;;;15.30;48.62;100671.70;1731221;82;20996;-64
2022/03/30 08:55:01;;;;;;;24.15;19.45;;;;;;;15.36;48.35;100667.05;1730738;82;21092;-62
2022/03/30 08:57:29;;;;;;;22.75;18.40;;;;;;;15.40;48.09;100665.14;1731058;82;21014;-63
2022/03/30 09:00:09;;;;;;;27.27;18.90;;;;;;;15.39;48.05;100660.35;1751390;80;21513;-63
2022/03/30 09:02:40;;;;;;;26.20;18.20;;;;;;;15.40;47.97;100663.38;1783542;80;20962;-64
2022/03/30 09:05:14;;;;;;;26.45;18.27;;;;;;;15.41;48.02;100659.00;1790223;80;21005;-64
2022/03/30 09:07:43;;;;;;;25.12;18.50;;;;;;;15.43;47.92;100662.44;1770240;80;21062;-62
2022/03/30 09:10:18;;;;;;;29.50;19.48;;;;;;;15.44;47.93;100662.37;1781894;80;21009;-62
2022/03/30 09:12:49;;;;;;;26.25;18.02;;;;;;;15.46;47.82;100662.29;1781147;80;21038;-63
2022/03/30 09:15:16;;;;;;;23.87;18.60;;;;;;;15.48;47.65;100657.83;1721353;81;21006;-61
2022/03/30 09:17:44;;;;;;;24.77;19.60;;;;;;;15.50;47.73;100658.62;1725423;81;20995;-62
2022/03/30 09:20:17;;;;;;;27.70;18.60;;;;;;;15.49;47.30;100651.69;1717722;82;21070;-62
2022/03/30 09:22:50;;;;;;;24.00;18.20;;;;;;;15.43;47.52;100654.58;1660540;85;21161;-62
2022/03/30 09:25:17;;;;;;;27.87;19.07;;;;;;;15.39;47.69;100641.17;1665681;84;21075;-62
2022/03/30 09:27:46;;;;;;;28.10;18.87;;;;;;;15.39;47.83;100645.10;1649331;86;21039;-64
2022/03/30 09:30:15;;;;;;;23.42;19.12;;;;;;;15.41;47.81;100639.33;1658460;86;21125;-62
2022/03/30 09:32:44;;;;;;;25.08;18.05;;;;;;;15.45;47.70;100635.69;1654226;85;21056;-60
2022/03/30 09:35:27;;;;;;;21.75;18.15;;;;;;;15.48;47.45;100634.72;1653206;85;21044;-61
2022/03/30 09:38:09;;;;;;;24.98;18.37;;;;;;;15.50;47.41;100632.39;1653301;85;21031;-64
2022/03/30 09:40:43;;;;;;;26.42;18.73;;;;;;;15.53;47.42;100636.20;1656013;85;21098;-63
2022/03/30 09:43:17;;;;;;;24.37;18.23;;;;;;;15.56;47.36;100632.12;1655055;85;21078;-64
2022/03/30 09:45:45;;;;;;;22.77;18.95;;;;;;;15.62;47.23;100629.23;1639181;87;21137;-64
2022/03/30 09:48:23;;;;;;;27.17;19.48;;;;;;;15.65;47.16;100629.56;1657670;86;21074;-64
2022/03/30 09:50:55;;;;;;;24.63;18.35;;;;;;;15.66;47.16;100633.41;1661674;86;21074;-65
2022/03/30 09:53:25;;;;;;;23.45;17.95;;;;;;;15.68;47.20;100623.73;1653510;85;21047;-64
2022/03/30 09:55:57;;;;;;;23.05;17.00;;;;;;;15.72;47.05;100620.06;1661201;86;21023;-64
2022/03/30 09:58:25;;;;;;;25.12;17.48;;;;;;;15.75;46.87;100617.73;1651636;85;21107;-66
2022/03/30 10:01:13;;;;;;;25.37;18.35;;;;;;;15.78;46.71;100613.67;1655858;85;21490;-68
2022/03/30 10:03:50;;;;;;;25.10;17.42;;;;;;;15.81;46.60;100611.75;1647363;85;21048;-67
2022/03/30 10:06:30;;;;;;;27.45;18.65;;;;;;;15.82;46.51;100618.72;1640163;85;21096;-67
2022/03/30 10:08:58;;;;;;;25.10;17.23;;;;;;;15.86;46.45;100615.03;1650363;87;21073;-68
2022/03/30 10:11:28;;;;;;;26.97;17.30;;;;;;;15.91;46.38;100614.34;1658355;86;21003;-67
2022/03/30 10:14:00;;;;;;;23.98;17.85;;;;;;;15.95;46.26;100614.59;1655643;86;21061;-66
2022/03/30 10:16:29;;;;;;;24.72;17.98;;;;;;;15.99;46.18;100606.14;1651303;86;20999;-67
2022/03/30 10:18:56;;;;;;;25.62;17.55;;;;;;;16.02;46.05;100612.09;1691720;80;20990;-67
2022/03/30 10:21:46;;;;;;;21.93;17.42;;;;;;;16.06;45.86;100609.72;1782134;80;21545;-67
2022/03/30 10:24:19;;;;;;;19.57;16.93;;;;;;;16.07;45.78;100615.34;1766269;80;20979;-68
2022/03/30 10:27:11;;;;;;;23.35;16.73;;;;;;;16.07;45.89;100613.20;1768563;80;21136;-67
2022/03/30 10:29:39;;;;;;;22.10;16.48;;;;;;;16.06;45.94;100605.78;1747816;80;21499;-67
2022/03/30 10:32:17;;;;;;;22.13;15.90;;;;;;;16.04;45.92;100605.00;1767111;80;21016;-68
2022/03/30 10:35:02;;;;;;;25.32;16.95;;;;;;;16.01;46.01;100606.44;1760263;80;21081;-67
2022/03/30 10:37:34;;;;;;;17.15;15.05;;;;;;;15.99;46.17;100608.28;1771780;80;20989;-67
2022/03/30 10:40:08;;;;;;;;;;;;;;;15.98;46.21;100601.34;1771349;80;21045;-67
2022/03/30 10:42:57;;;;;;;19.73;15.35;;;;;;;15.97;46.13;100603.56;1775808;80;20373;-67
2022/03/30 10:45:50;;;;;;;16.32;13.83;;;;;;;15.97;46.03;100604.88;1772722;80;21097;-67
2022/03/30 10:48:36;;;;;;;21.33;14.93;;;;;;;15.96;46.06;100595.31;1692288;85;21496;-67
2022/03/30 10:51:14;;;;;;;18.05;15.53;;;;;;;16.00;46.02;100589.45;1687619;84;20995;-67
2022/03/30 10:53:51;;;;;;;19.95;16.32;;;;;;;16.03;45.90;100591.95;1688835;85;21015;-67
2022/03/30 10:56:26;;;;;;;22.55;16.32;;;;;;;16.07;45.71;100582.53;1691248;84;21010;-66
2022/03/30 10:58:59;;;;;;;19.45;15.80;;;;;;;16.10;45.28;100581.09;1688037;84;21011;-67
2022/03/30 11:01:31;;;;;;;20.08;15.63;;;;;;;16.09;45.12;100587.24;1689525;84;21549;-66
2022/03/30 11:04:06;;;;;;;19.62;14.80;;;;;;;16.08;45.13;100578.14;1690701;84;21477;-67
2022/03/30 11:06:39;;;;;;;17.50;13.98;;;;;;;16.05;45.21;100580.92;1692184;84;21065;-68
2022/03/30 11:09:08;;;;;;;20.82;14.73;;;;;;;15.99;45.18;100587.28;1692036;84;21046;-67
2022/03/30 11:11:42;;;;;;;18.17;14.47;;;;;;;15.92;45.40;100583.27;1631588;88;21030;-67
2022/03/30 11:14:33;;;;;;;17.75;12.70;;;;;;;15.86;45.51;100573.05;1631765;88;21123;-68
2022/03/30 11:17:07;;;;;;;18.30;13.83;;;;;;;15.80;45.83;100575.95;1633013;86;21046;-68
2022/03/30 11:19:56;;;;;;;18.25;12.90;;;;;;;15.75;46.08;100563.95;1631930;88;21029;-66
2022/03/30 11:22:32;;;;;;;18.82;11.80;;;;;;;15.72;46.34;100561.03;1631958;88;21533;-67
2022/03/30 11:25:18;;;;;;;17.65;12.95;;;;;;;15.73;46.45;100560.09;1644157;85;21589;-68
2022/03/30 11:27:48;;;;;;;15.72;11.48;;;;;;;15.76;46.60;100564.36;1688319;84;21030;-67